createdAt,value
2022-12-15T00:01:19.914Z,24.50
2022-12-15T00:03:47.150Z,19.83
2022-12-15T00:06:14.417Z,21.30
2022-12-15T00:08:41.502Z,24.20
2022-12-15T00:11:08.613Z,21.43
2022-12-15T00:13:35.739Z,22.40
2022-12-15T00:16:04.408Z,21.43
2022-12-15T00:18:31.559Z,20.87
2022-12-15T00:20:59.190Z,22.37
2022-12-15T00:23:26.368Z,21.30
2022-12-15T00:25:53.542Z,19.93
2022-12-15T00:28:20.617Z,21.17
2022-12-15T00:30:49.604Z,22.27
2022-12-15T00:33:18.559Z,21.33
2022-12-15T00:35:45.669Z,24.53
2022-12-15T00:38:13.664Z,20.53
2022-12-15T00:40:40.793Z,22.43
2022-12-15T00:43:07.981Z,20.37
2022-12-15T00:45:35.028Z,21.30
2022-12-15T00:48:02.131Z,22.53
2022-12-15T00:50:30.570Z,22.37
2022-12-15T00:52:57.702Z,21.80
2022-12-15T00:55:24.794Z,21.83
2022-12-15T00:57:53.776Z,21.93
2022-12-15T01:00:21.088Z,22.40
2022-12-15T01:02:48.399Z,22.40
2022-12-15T01:05:15.699Z,21.50
2022-12-15T01:07:44.159Z,20.27
2022-12-15T01:10:17.160Z,23.03
2022-12-15T01:12:44.511Z,20.90
2022-12-15T01:15:11.678Z,22.70
2022-12-15T01:17:38.783Z,23.53
2022-12-15T01:20:06.979Z,23.33
2022-12-15T01:22:34.056Z,22.87
2022-12-15T01:25:02.492Z,22.63
2022-12-15T01:27:29.569Z,21.43
2022-12-15T01:29:56.711Z,22.03
2022-12-15T01:32:23.883Z,24.83
2022-12-15T01:34:51.060Z,21.60
2022-12-15T01:37:18.166Z,23.87
2022-12-15T01:39:45.250Z,22.23
2022-12-15T01:42:14.454Z,23.10
2022-12-15T01:44:41.573Z,26.50
2022-12-15T01:47:09.609Z,28.73
2022-12-15T01:49:36.797Z,24.20
2022-12-15T01:52:05.278Z,27.73
2022-12-15T01:54:34.192Z,22.60
2022-12-15T01:57:03.427Z,26.03
2022-12-15T01:59:33.900Z,26.90
2022-12-15T02:02:01.195Z,31.80
2022-12-15T02:04:28.440Z,31.03
2022-12-15T02:06:55.534Z,26.77
2022-12-15T02:09:23.351Z,27.60
2022-12-15T02:11:56.777Z,27.97
2022-12-15T02:14:28.902Z,24.23
2022-12-15T02:17:05.880Z,25.53
2022-12-15T02:19:46.123Z,22.23
2022-12-15T02:22:22.978Z,22.93
2022-12-15T02:25:09.498Z,20.93
2022-12-15T02:27:52.734Z,24.10
2022-12-15T02:30:23.105Z,22.10
2022-12-15T02:32:52.940Z,24.43
2022-12-15T02:35:22.569Z,27.93
2022-12-15T02:37:50.168Z,29.50
2022-12-15T02:40:17.381Z,33.17
2022-12-15T02:42:45.704Z,37.50
2022-12-15T02:45:13.872Z,39.57
2022-12-15T02:47:43.755Z,27.60
2022-12-15T02:50:24.692Z,33.50
2022-12-15T02:52:56.584Z,29.90
2022-12-15T02:55:28.539Z,30.47
2022-12-15T02:57:58.363Z,30.77
2022-12-15T03:00:25.446Z,30.83
2022-12-15T03:02:54.910Z,28.90
2022-12-15T03:05:23.008Z,31.43
2022-12-15T03:07:50.551Z,30.67
2022-12-15T03:10:18.440Z,26.57
2022-12-15T03:12:45.558Z,37.63
2022-12-15T03:15:12.787Z,33.60
2022-12-15T03:17:39.909Z,28.00
2022-12-15T03:20:09.090Z,34.47
2022-12-15T03:22:36.709Z,30.63
2022-12-15T03:25:03.978Z,33.43
2022-12-15T03:27:31.071Z,36.50
2022-12-15T03:29:58.214Z,34.33
2022-12-15T03:32:25.303Z,32.17
2022-12-15T03:34:52.405Z,32.37
2022-12-15T03:37:20.854Z,31.83
2022-12-15T03:39:48.116Z,32.13
2022-12-15T03:42:15.250Z,30.80
2022-12-15T03:44:42.352Z,36.90
2022-12-15T03:47:09.432Z,35.87
2022-12-15T03:49:36.573Z,33.40
2022-12-15T03:52:03.671Z,31.73
2022-12-15T03:54:32.152Z,33.20
2022-12-15T03:56:59.260Z,34.00
2022-12-15T03:59:26.341Z,30.43
2022-12-15T04:01:53.610Z,29.33
2022-12-15T04:04:20.843Z,33.10
2022-12-15T04:06:47.972Z,36.33
2022-12-15T04:09:15.058Z,28.77
2022-12-15T04:11:43.546Z,30.47
2022-12-15T04:14:10.753Z,35.80
2022-12-15T04:16:37.905Z,28.00
2022-12-15T04:19:05.051Z,34.30
2022-12-15T04:21:32.166Z,37.60
2022-12-15T04:23:59.271Z,32.20
2022-12-15T04:26:26.380Z,33.33
2022-12-15T04:28:54.793Z,35.27
2022-12-15T04:31:24.332Z,36.33
2022-12-15T04:33:53.389Z,34.70
2022-12-15T04:36:20.554Z,34.20
2022-12-15T04:38:50.527Z,36.90
2022-12-15T04:41:19.666Z,31.70
2022-12-15T04:43:46.792Z,36.10
2022-12-15T04:46:15.362Z,30.00
2022-12-15T04:48:42.499Z,31.83
2022-12-15T04:51:09.585Z,29.77
2022-12-15T04:53:36.687Z,31.70
2022-12-15T04:56:04.199Z,33.13
2022-12-15T04:58:31.305Z,34.33
2022-12-15T05:00:58.761Z,28.97
2022-12-15T05:03:27.232Z,33.17
2022-12-15T05:05:55.431Z,29.13
2022-12-15T05:08:22.522Z,28.57
2022-12-15T05:10:49.669Z,30.70
2022-12-15T05:13:16.762Z,34.80
2022-12-15T05:15:43.890Z,34.30
2022-12-15T05:18:11.020Z,35.33
2022-12-15T05:20:39.671Z,28.70
2022-12-15T05:23:06.733Z,26.30
2022-12-15T05:25:33.865Z,32.57
2022-12-15T05:28:00.987Z,35.80
2022-12-15T05:30:28.125Z,30.57
2022-12-15T05:32:55.377Z,27.57
2022-12-15T05:35:22.497Z,24.17
2022-12-15T05:37:50.924Z,28.53
2022-12-15T05:40:18.017Z,24.00
2022-12-15T05:42:46.390Z,32.37
2022-12-15T05:45:17.388Z,31.00
2022-12-15T05:47:44.501Z,25.87
2022-12-15T05:50:11.644Z,32.07
2022-12-15T05:52:38.986Z,31.80
2022-12-15T05:55:07.906Z,31.30
2022-12-15T05:57:35.009Z,31.00
2022-12-15T06:00:02.225Z,28.60
2022-12-15T06:02:38.786Z,31.50
2022-12-15T06:05:06.433Z,33.70
2022-12-15T06:07:33.890Z,29.37
2022-12-15T06:10:00.992Z,30.47
2022-12-15T06:12:30.238Z,27.63
2022-12-15T06:14:57.341Z,27.27
2022-12-15T06:17:24.468Z,25.00
2022-12-15T06:19:51.543Z,26.73
2022-12-15T06:22:18.622Z,22.73
2022-12-15T06:24:45.765Z,25.93
2022-12-15T06:27:12.833Z,24.17
2022-12-15T06:29:41.260Z,22.57
2022-12-15T06:32:08.330Z,24.53
2022-12-15T06:34:35.445Z,21.43
2022-12-15T06:37:02.580Z,22.07
2022-12-15T06:39:29.691Z,23.50
2022-12-15T06:41:56.778Z,23.03
2022-12-15T06:44:23.968Z,20.30
2022-12-15T06:46:52.460Z,20.50
2022-12-15T06:49:19.645Z,19.03
2022-12-15T06:51:46.742Z,19.57
2022-12-15T06:54:13.870Z,21.90
2022-12-15T06:56:40.981Z,20.20
2022-12-15T06:59:08.526Z,20.43
2022-12-15T07:01:36.141Z,24.73
2022-12-15T07:04:04.882Z,21.70
2022-12-15T07:06:33.578Z,22.40
2022-12-15T07:09:00.731Z,25.33
2022-12-15T07:11:27.912Z,23.13
2022-12-15T07:13:55.255Z,20.70
2022-12-15T07:16:23.153Z,22.40
2022-12-15T07:18:50.658Z,20.33
2022-12-15T07:21:19.135Z,21.20
2022-12-15T07:23:54.699Z,21.03
2022-12-15T07:26:23.115Z,20.20
2022-12-15T07:28:50.244Z,17.90
2022-12-15T07:31:17.421Z,20.20
2022-12-15T07:33:44.532Z,19.30
2022-12-15T07:36:11.745Z,21.03
2022-12-15T07:38:40.281Z,19.80
2022-12-15T07:41:08.440Z,18.70
2022-12-15T07:43:36.414Z,20.23
2022-12-15T07:46:04.407Z,20.50
2022-12-15T07:48:31.576Z,22.17
2022-12-15T07:51:07.399Z,19.20
2022-12-15T07:53:36.305Z,18.97
2022-12-15T07:56:07.971Z,18.87
2022-12-15T07:58:35.971Z,19.40
2022-12-15T08:01:05.283Z,23.80
2022-12-15T08:03:33.462Z,24.10
2022-12-15T08:06:04.283Z,20.00
2022-12-15T08:08:32.278Z,22.43
2022-12-15T08:10:59.567Z,24.93
2022-12-15T08:14:00.865Z,26.90
2022-12-15T08:16:15.333Z,25.73
2022-12-15T08:18:42.505Z,28.70
2022-12-15T08:21:11.928Z,27.70
2022-12-15T08:23:39.175Z,30.13
2022-12-15T08:26:07.391Z,26.73
2022-12-15T08:28:36.179Z,22.23
2022-12-15T08:31:04.167Z,27.40
2022-12-15T08:33:31.791Z,28.37
2022-12-15T08:35:59.708Z,28.93
2022-12-15T08:38:26.784Z,23.70
2022-12-15T08:40:53.935Z,35.47
2022-12-15T08:43:21.060Z,26.47
2022-12-15T08:45:49.610Z,28.10
2022-12-15T08:48:17.492Z,26.03
2022-12-15T08:50:45.045Z,26.93
2022-12-15T08:56:02.503Z,31.47
2022-12-15T08:58:29.614Z,31.13
2022-12-15T09:01:01.518Z,27.40
2022-12-15T09:03:29.009Z,23.00
2022-12-15T09:05:56.589Z,30.00
2022-12-15T09:08:24.000Z,16.30
2022-12-15T09:10:52.311Z,24.30
2022-12-15T09:13:19.900Z,32.83
2022-12-15T09:16:09.016Z,31.73
2022-12-15T09:18:35.439Z,30.17
2022-12-15T09:21:02.996Z,31.60
2022-12-15T09:23:30.988Z,24.63
2022-12-15T09:26:00.079Z,26.10
2022-12-15T09:28:27.274Z,30.40
2022-12-15T09:30:54.493Z,32.07
2022-12-15T09:33:21.640Z,30.53
2022-12-15T09:35:52.075Z,26.27
2022-12-15T09:38:19.193Z,25.73
2022-12-15T09:40:46.375Z,30.43
2022-12-15T09:43:47.159Z,28.90
2022-12-15T09:46:09.153Z,32.33
2022-12-15T09:48:39.240Z,23.30
2022-12-15T09:51:09.196Z,33.03
2022-12-15T09:56:26.707Z,29.10
2022-12-15T09:58:56.997Z,33.47
2022-12-15T10:01:28.674Z,35.40
2022-12-15T10:03:57.926Z,31.77
2022-12-15T10:09:19.605Z,33.57
2022-12-15T10:11:50.624Z,37.10
2022-12-15T10:14:23.331Z,33.03
2022-12-15T10:16:53.564Z,33.33
2022-12-15T10:19:24.742Z,28.20
2022-12-15T10:21:53.261Z,33.27
2022-12-15T10:24:44.486Z,27.70
2022-12-15T10:27:14.996Z,30.87
2022-12-15T10:29:44.541Z,28.93
2022-12-15T10:32:19.343Z,35.20
2022-12-15T10:34:46.789Z,37.13
2022-12-15T10:37:18.772Z,33.73
2022-12-15T10:39:46.910Z,35.40
2022-12-15T10:42:19.216Z,25.70
2022-12-15T10:44:50.651Z,26.83
2022-12-15T10:47:19.923Z,29.53
2022-12-15T10:49:48.442Z,27.53
2022-12-15T10:52:19.804Z,34.50
2022-12-15T10:54:48.394Z,27.23
2022-12-15T10:57:16.970Z,28.77
2022-12-15T10:59:44.192Z,33.30
2022-12-15T11:02:28.723Z,33.77
2022-12-15T11:04:56.487Z,26.07
2022-12-15T11:07:26.393Z,33.73
2022-12-15T11:09:58.938Z,29.53
2022-12-15T11:12:27.039Z,34.40
2022-12-15T11:14:54.226Z,34.63
2022-12-15T11:17:22.390Z,38.30
2022-12-15T11:19:56.688Z,36.17
2022-12-15T11:22:35.840Z,36.17
2022-12-15T11:25:05.649Z,38.47
2022-12-15T11:27:33.972Z,38.60
2022-12-15T11:30:02.990Z,35.87
2022-12-15T11:32:33.021Z,38.20
2022-12-15T11:35:00.534Z,33.77
2022-12-15T11:37:37.594Z,37.30
2022-12-15T11:40:31.916Z,34.80
2022-12-15T11:43:09.458Z,35.77
2022-12-15T11:45:37.445Z,32.20
2022-12-15T11:48:11.313Z,29.93
2022-12-15T11:50:42.517Z,30.30
2022-12-15T11:53:24.157Z,35.07
2022-12-15T11:55:53.888Z,30.80
2022-12-15T11:58:32.489Z,36.93
2022-12-15T12:01:04.518Z,34.40
2022-12-15T12:03:34.684Z,31.60
2022-12-15T12:06:05.959Z,30.27
2022-12-15T12:08:41.641Z,31.10
2022-12-15T12:11:11.221Z,35.13
2022-12-15T12:13:43.277Z,30.83
2022-12-15T12:16:15.006Z,32.17
2022-12-15T12:18:43.673Z,33.97
2022-12-15T12:21:12.748Z,29.43
2022-12-15T12:23:43.228Z,30.10
2022-12-15T12:26:12.864Z,30.17
2022-12-15T12:28:45.628Z,33.53
2022-12-15T12:31:21.555Z,34.57
2022-12-15T12:33:49.819Z,33.53
2022-12-15T12:36:17.330Z,30.77
2022-12-15T12:38:50.875Z,33.07
2022-12-15T12:41:23.352Z,32.30
2022-12-15T12:43:53.039Z,31.50
2022-12-15T12:46:21.916Z,37.07
2022-12-15T12:48:51.653Z,36.27
2022-12-15T12:51:22.656Z,31.13
2022-12-15T12:53:51.136Z,34.53
2022-12-15T12:56:29.889Z,34.27
2022-12-15T12:58:57.079Z,33.10
2022-12-15T13:01:26.818Z,34.43
2022-12-15T13:04:05.589Z,33.20
2022-12-15T13:06:47.586Z,32.30
2022-12-15T13:09:37.645Z,31.37
2022-12-15T13:12:20.961Z,33.67
2022-12-15T13:14:54.322Z,32.17
2022-12-15T13:17:28.296Z,30.90
2022-12-15T13:20:07.006Z,32.73
2022-12-15T13:22:34.870Z,29.60
2022-12-15T13:25:03.760Z,30.90
2022-12-15T13:27:35.923Z,29.60
2022-12-15T13:30:14.142Z,31.77
2022-12-15T13:32:42.292Z,26.57
2022-12-15T13:35:23.452Z,29.83
2022-12-15T13:37:53.171Z,29.93
2022-12-15T13:40:32.326Z,28.50
2022-12-15T13:42:59.833Z,31.30
2022-12-15T13:45:32.625Z,29.67
2022-12-15T13:48:00.051Z,31.30
2022-12-15T13:50:30.736Z,31.27
2022-12-15T13:55:52.839Z,29.40
2022-12-15T13:58:20.951Z,31.83
2022-12-15T14:00:48.994Z,30.27
2022-12-15T14:03:16.214Z,31.43
2022-12-15T14:05:48.275Z,30.00
2022-12-15T14:08:18.891Z,34.77
2022-12-15T14:10:49.034Z,31.50
2022-12-15T14:13:20.408Z,31.10
2022-12-15T14:15:50.913Z,32.20
2022-12-15T14:18:26.244Z,31.67
2022-12-15T14:20:53.360Z,33.13
2022-12-15T14:23:20.666Z,31.07
2022-12-15T14:25:54.986Z,32.33
2022-12-15T14:28:26.373Z,32.33
2022-12-15T14:30:53.646Z,32.93
2022-12-15T14:33:24.067Z,31.77
2022-12-15T14:35:56.652Z,31.13
2022-12-15T14:38:25.131Z,31.37
2022-12-15T14:40:53.607Z,29.87
2022-12-15T14:43:21.645Z,32.80
2022-12-15T14:45:52.411Z,30.50
2022-12-15T14:48:42.795Z,28.30
2022-12-15T14:51:10.336Z,31.43
2022-12-15T14:53:39.036Z,34.40
2022-12-15T14:56:29.389Z,32.10
2022-12-15T14:58:58.980Z,29.17
2022-12-15T15:01:28.335Z,31.03
2022-12-15T15:03:09.322Z,33.70
2022-12-15T15:03:59.206Z,31.57
2022-12-15T15:06:30.027Z,31.47
2022-12-15T15:08:57.263Z,28.50
2022-12-15T15:11:25.910Z,31.97
2022-12-15T15:13:56.157Z,31.00
2022-12-15T15:16:23.705Z,31.37
2022-12-15T15:18:53.774Z,32.30
2022-12-15T15:21:22.419Z,28.40
2022-12-15T15:23:59.825Z,31.80
2022-12-15T15:26:27.602Z,31.00
2022-12-15T15:28:55.210Z,31.13
2022-12-15T15:31:33.942Z,30.13
2022-12-15T15:34:06.973Z,32.90
2022-12-15T15:36:35.424Z,34.90
2022-12-15T15:39:02.731Z,29.33
2022-12-15T15:41:30.601Z,35.33
2022-12-15T15:43:58.303Z,32.80
2022-12-15T15:46:26.858Z,34.63
2022-12-15T15:48:56.086Z,33.47
2022-12-15T15:51:26.121Z,35.00
2022-12-15T15:53:53.886Z,34.20
2022-12-15T15:56:21.505Z,32.70
2022-12-15T15:58:48.596Z,34.23
2022-12-15T16:01:15.868Z,32.20
2022-12-15T16:03:43.035Z,34.10
2022-12-15T16:06:14.791Z,33.60
2022-12-15T16:08:43.757Z,34.63
2022-12-15T16:11:11.599Z,34.00
2022-12-15T16:13:38.792Z,32.97
2022-12-15T16:16:06.196Z,31.83
2022-12-15T16:18:33.707Z,29.53
2022-12-15T16:21:01.191Z,29.30
2022-12-15T16:23:29.387Z,30.33
2022-12-15T16:25:58.831Z,28.30
2022-12-15T16:28:26.769Z,31.07
2022-12-15T16:30:53.947Z,28.90
2022-12-15T16:33:21.372Z,31.23
2022-12-15T16:35:50.041Z,29.90
2022-12-15T16:38:18.938Z,30.77
2022-12-15T16:40:46.096Z,31.53
2022-12-15T16:43:16.222Z,30.70
2022-12-15T16:45:43.782Z,33.23
2022-12-15T16:48:11.024Z,30.27
2022-12-15T16:50:38.898Z,31.00
2022-12-15T16:53:06.829Z,29.00
2022-12-15T16:55:39.651Z,31.03
2022-12-15T16:58:07.555Z,31.20
2022-12-15T17:00:36.074Z,31.00
2022-12-15T17:03:03.566Z,30.27
2022-12-15T17:05:32.194Z,32.37
2022-12-15T17:07:59.938Z,32.57
2022-12-15T17:10:29.378Z,28.57
2022-12-15T17:12:58.941Z,30.87
2022-12-15T17:15:27.460Z,31.43
2022-12-15T17:17:56.209Z,29.60
2022-12-15T17:20:29.463Z,31.50
2022-12-15T17:22:58.545Z,29.87
2022-12-15T17:25:45.943Z,29.57
2022-12-15T17:28:15.990Z,31.20
2022-12-15T17:30:43.323Z,31.10
2022-12-15T17:33:17.384Z,30.07
2022-12-15T17:35:44.557Z,27.37
2022-12-15T17:38:14.925Z,28.53
2022-12-15T17:40:42.041Z,32.10
2022-12-15T17:43:12.324Z,31.87
2022-12-15T17:45:39.441Z,33.83
2022-12-15T17:48:06.680Z,33.93
2022-12-15T17:50:35.498Z,31.33
2022-12-15T17:53:03.884Z,31.50
2022-12-15T17:55:34.946Z,31.00
2022-12-15T17:58:03.300Z,31.93
2022-12-15T18:00:31.163Z,30.83
2022-12-15T18:02:59.191Z,32.17
2022-12-15T18:05:27.321Z,32.03
2022-12-15T18:07:56.790Z,30.37
2022-12-15T18:10:26.032Z,30.07
2022-12-15T18:12:53.174Z,31.57
2022-12-15T18:15:21.201Z,30.40
2022-12-15T18:17:48.381Z,34.00
2022-12-15T18:20:15.669Z,31.17
2022-12-15T18:22:42.828Z,30.30
2022-12-15T18:25:18.973Z,30.27
2022-12-15T18:27:46.119Z,30.20
2022-12-15T18:30:17.707Z,29.73
2022-12-15T18:32:45.458Z,30.60
2022-12-15T18:35:17.497Z,28.63
2022-12-15T18:37:44.947Z,31.00
2022-12-15T18:40:14.215Z,28.87
2022-12-15T18:42:42.952Z,28.80
2022-12-15T18:45:20.278Z,31.90
2022-12-15T18:47:47.789Z,35.60
2022-12-15T18:50:15.872Z,30.57
2022-12-15T18:52:42.992Z,29.50
2022-12-15T18:55:17.672Z,33.87
2022-12-15T18:57:46.140Z,30.43
2022-12-15T19:00:18.401Z,30.80
2022-12-15T19:02:45.695Z,32.57
2022-12-15T19:05:12.853Z,33.27
2022-12-15T19:07:39.948Z,35.53
2022-12-15T19:10:07.312Z,34.80
2022-12-15T19:12:34.448Z,34.13
2022-12-15T19:15:02.885Z,32.07
2022-12-15T19:17:29.992Z,28.57
2022-12-15T19:19:57.086Z,31.87
2022-12-15T19:22:24.640Z,32.27
2022-12-15T19:24:51.783Z,32.93
2022-12-15T19:27:20.042Z,29.93
2022-12-15T19:29:47.469Z,27.97
2022-12-15T19:32:16.076Z,26.57
2022-12-15T19:34:43.196Z,28.90
2022-12-15T19:37:14.249Z,29.73
2022-12-15T19:39:41.357Z,30.07
2022-12-15T19:42:14.621Z,30.33
2022-12-15T19:44:41.739Z,27.97
2022-12-15T19:47:12.041Z,29.60
2022-12-15T19:49:40.529Z,32.27
2022-12-15T19:52:12.054Z,34.33
2022-12-15T19:54:39.202Z,31.30
2022-12-15T19:57:09.583Z,30.50
2022-12-15T19:59:36.673Z,30.57
2022-12-15T20:02:04.015Z,28.53
2022-12-15T20:04:31.294Z,29.07
2022-12-15T20:07:00.117Z,32.30
2022-12-15T20:09:27.197Z,29.57
2022-12-15T20:11:54.324Z,33.43
2022-12-15T20:14:21.430Z,30.67
2022-12-15T20:16:48.658Z,30.10
2022-12-15T20:19:15.841Z,28.93
2022-12-15T20:21:43.042Z,29.17
2022-12-15T20:24:14.548Z,28.70
2022-12-15T20:26:42.099Z,31.30
2022-12-15T20:29:17.539Z,29.20
2022-12-15T20:31:44.744Z,30.97
2022-12-15T20:34:11.839Z,31.30
2022-12-15T20:36:38.964Z,27.83
2022-12-15T20:39:11.022Z,30.40
2022-12-15T20:41:39.458Z,28.10
2022-12-15T20:44:06.664Z,30.37
2022-12-15T20:46:34.734Z,32.10
2022-12-15T20:49:01.931Z,30.47
2022-12-15T20:51:29.983Z,27.90
2022-12-15T20:53:57.928Z,28.73
2022-12-15T20:56:25.443Z,28.90
2022-12-15T20:58:54.717Z,30.73
2022-12-15T21:01:23.425Z,30.77
2022-12-15T21:03:51.970Z,32.90
2022-12-15T21:06:19.474Z,32.97
2022-12-15T21:08:46.586Z,28.87
2022-12-15T21:11:15.553Z,32.00
2022-12-15T21:13:42.958Z,31.23
2022-12-15T21:16:15.170Z,29.97
2022-12-15T21:21:33.211Z,29.70
2022-12-15T21:24:00.712Z,31.97
2022-12-15T21:26:28.426Z,30.63
2022-12-15T21:28:57.038Z,31.40
2022-12-15T21:31:26.117Z,31.00
2022-12-15T21:33:53.335Z,33.47
2022-12-15T21:36:22.325Z,32.70
2022-12-15T21:38:50.365Z,33.50
2022-12-15T21:41:19.920Z,30.87
2022-12-15T21:43:47.270Z,32.40
2022-12-15T21:46:15.468Z,31.27
2022-12-15T21:48:44.340Z,33.40
2022-12-15T21:51:15.036Z,35.20
2022-12-15T21:53:42.180Z,29.57
2022-12-15T21:56:11.398Z,33.00
2022-12-15T21:58:38.499Z,31.80
2022-12-15T22:01:05.694Z,34.67
2022-12-15T22:03:32.871Z,32.63
2022-12-15T22:06:01.298Z,33.90
2022-12-15T22:08:28.443Z,35.87
2022-12-15T22:10:55.657Z,36.87
2022-12-15T22:13:23.615Z,31.27
2022-12-15T22:15:51.127Z,30.23
2022-12-15T22:18:19.084Z,31.80
2022-12-15T22:20:46.702Z,30.70
2022-12-15T22:23:15.173Z,32.90
2022-12-15T22:25:42.496Z,33.50
2022-12-15T22:28:15.958Z,33.37
2022-12-15T22:30:43.070Z,34.50
2022-12-15T22:33:12.570Z,31.90
2022-12-15T22:35:42.204Z,30.47
2022-12-15T22:38:09.303Z,30.80
2022-12-15T22:40:37.768Z,34.30
2022-12-15T22:43:05.363Z,35.87
2022-12-15T22:45:32.486Z,32.20
2022-12-15T22:47:59.620Z,34.30
2022-12-15T22:50:27.307Z,34.70
2022-12-15T22:52:55.247Z,33.17
2022-12-15T22:55:23.462Z,34.37
2022-12-15T22:57:54.204Z,30.80
2022-12-15T23:00:21.479Z,34.33
2022-12-15T23:02:48.645Z,33.67
2022-12-15T23:05:17.063Z,36.13
2022-12-15T23:07:44.497Z,33.07
2022-12-15T23:10:12.840Z,30.80
2022-12-15T23:12:39.925Z,33.80
2022-12-15T23:15:09.170Z,34.27
2022-12-15T23:17:36.248Z,28.40
2022-12-15T23:20:03.431Z,30.90
2022-12-15T23:22:30.529Z,33.50
2022-12-15T23:24:57.607Z,36.33
2022-12-15T23:27:24.685Z,28.73
2022-12-15T23:29:51.818Z,28.33
2022-12-15T23:32:20.266Z,31.57
2022-12-15T23:34:47.379Z,34.73
2022-12-15T23:37:14.528Z,30.60
2022-12-15T23:39:41.598Z,34.40
2022-12-15T23:42:08.706Z,31.33
2022-12-15T23:44:35.832Z,30.10
2022-12-15T23:47:02.986Z,32.50
2022-12-15T23:49:31.509Z,33.33
2022-12-15T23:51:58.607Z,30.30
2022-12-15T23:54:25.715Z,35.70
2022-12-15T23:56:52.816Z,33.50
2022-12-15T23:59:21.841Z,30.87
